Metar Aviation Weather Data KPWM

48°F Temp
46°F Dewpoint
% Humidity
Temperature
10 MPH
16 KM/H
9 KTS
300°
West North
West

Wind Speed
Partly Cloudy
Conditions
Pressure 987.12 (hPa) - 29.15 (in)
Visibility 10.0 (mi) - 16 (km)

Current Conditions
KPWM
Metar :KPWM 180051Z 30009KT 10SM FEW016 OVC048 09/08 A2915 RMK AO2 SLP870 T00940078
Thu 17th October 20:51 pm

  Metar Aviation API Data Provided by https://www.checkwx.com/ PHP scripts by weather34.com ©2019